sensor_id;sensor_type;location;lat;lon;timestamp;pressure;altitude;pressure_sealevel;temperature;humidity
72636;BME280;60679;48.888;15.544;2023-05-10T00:00:36;95858.09;;;7.64;51.39
72636;BME280;60679;48.888;15.544;2023-05-10T00:03:01;95851.91;;;7.56;51.40
72636;BME280;60679;48.888;15.544;2023-05-10T00:05:29;95851.72;;;7.58;51.57
72636;BME280;60679;48.888;15.544;2023-05-10T00:07:54;95843.06;;;7.56;51.55
72636;BME280;60679;48.888;15.544;2023-05-10T00:10:20;95845.78;;;7.49;51.62
72636;BME280;60679;48.888;15.544;2023-05-10T00:12:45;95833.38;;;7.48;51.76
72636;BME280;60679;48.888;15.544;2023-05-10T00:15:11;95832.09;;;7.51;51.88
72636;BME280;60679;48.888;15.544;2023-05-10T00:17:36;95827.16;;;7.48;51.94
72636;BME280;60679;48.888;15.544;2023-05-10T00:20:05;95826.56;;;7.46;51.99
72636;BME280;60679;48.888;15.544;2023-05-10T00:22:31;95827.16;;;7.48;52.08
72636;BME280;60679;48.888;15.544;2023-05-10T00:24:57;95826.38;;;7.47;52.54
72636;BME280;60679;48.888;15.544;2023-05-10T00:27:23;95819.34;;;7.46;52.41
72636;BME280;60679;48.888;15.544;2023-05-10T00:29:48;95815.81;;;7.46;52.37
72636;BME280;60679;48.888;15.544;2023-05-10T00:32:14;95812.13;;;7.40;52.49
72636;BME280;60679;48.888;15.544;2023-05-10T00:34:39;95816.31;;;7.36;52.67
72636;BME280;60679;48.888;15.544;2023-05-10T00:37:05;95816.31;;;7.30;52.69
72636;BME280;60679;48.888;15.544;2023-05-10T00:39:30;95809.72;;;7.26;52.92
72636;BME280;60679;48.888;15.544;2023-05-10T00:41:56;95807.44;;;7.29;52.95
72636;BME280;60679;48.888;15.544;2023-05-10T00:44:21;95801.03;;;7.30;53.14
72636;BME280;60679;48.888;15.544;2023-05-10T00:46:49;95801.66;;;7.26;53.13
72636;BME280;60679;48.888;15.544;2023-05-10T00:49:17;95794.28;;;7.21;53.13
72636;BME280;60679;48.888;15.544;2023-05-10T00:51:44;95795.72;;;7.17;53.43
72636;BME280;60679;48.888;15.544;2023-05-10T00:54:11;95795.28;;;7.20;53.59
72636;BME280;60679;48.888;15.544;2023-05-10T00:56:37;95793.66;;;7.19;53.38
72636;BME280;60679;48.888;15.544;2023-05-10T00:59:03;95799.47;;;7.16;53.53
72636;BME280;60679;48.888;15.544;2023-05-10T01:01:29;95800.28;;;7.17;53.61
72636;BME280;60679;48.888;15.544;2023-05-10T01:03:55;95790.34;;;7.17;53.79
72636;BME280;60679;48.888;15.544;2023-05-10T01:06:21;95779.84;;;7.16;53.82
72636;BME280;60679;48.888;15.544;2023-05-10T01:08:47;95788.56;;;7.11;53.93
72636;BME280;60679;48.888;15.544;2023-05-10T01:11:12;95782.38;;;7.04;53.94
72636;BME280;60679;48.888;15.544;2023-05-10T01:13:41;95787.56;;;6.99;54.11
72636;BME280;60679;48.888;15.544;2023-05-10T01:16:07;95783.19;;;7.05;54.15
72636;BME280;60679;48.888;15.544;2023-05-10T01:18:35;95782.78;;;7.08;54.33
72636;BME280;60679;48.888;15.544;2023-05-10T01:21:19;95789.41;;;7.05;54.42
72636;BME280;60679;48.888;15.544;2023-05-10T01:38:42;95781.13;;;7.00;55.26
72636;BME280;60679;48.888;15.544;2023-05-10T01:41:22;95786.97;;;6.90;55.60
72636;BME280;60679;48.888;15.544;2023-05-10T01:44:29;95780.38;;;6.86;55.36
72636;BME280;60679;48.888;15.544;2023-05-10T01:47:03;95784.31;;;6.84;55.69
72636;BME280;60679;48.888;15.544;2023-05-10T01:49:34;95780.44;;;6.80;55.86
72636;BME280;60679;48.888;15.544;2023-05-10T01:52:13;95786.81;;;6.79;55.92
72636;BME280;60679;48.888;15.544;2023-05-10T01:54:49;95787.25;;;6.76;55.88
72636;BME280;60679;48.888;15.544;2023-05-10T01:57:15;95791.56;;;6.77;56.23
72636;BME280;60679;48.888;15.544;2023-05-10T01:59:43;95782.28;;;6.73;56.19
72636;BME280;60679;48.888;15.544;2023-05-10T02:02:11;95782.94;;;6.68;56.35
72636;BME280;60679;48.888;15.544;2023-05-10T02:04:39;95783.78;;;6.62;56.38
72636;BME280;60679;48.888;15.544;2023-05-10T02:07:06;95780.69;;;6.59;56.52
72636;BME280;60679;48.888;15.544;2023-05-10T02:09:32;95781.09;;;6.56;56.80
72636;BME280;60679;48.888;15.544;2023-05-10T02:11:59;95783.59;;;6.57;56.83
72636;BME280;60679;48.888;15.544;2023-05-10T02:14:30;95782.16;;;6.55;56.81
72636;BME280;60679;48.888;15.544;2023-05-10T02:16:58;95786.06;;;6.52;57.06
72636;BME280;60679;48.888;15.544;2023-05-10T02:19:25;95777.81;;;6.47;57.10
72636;BME280;60679;48.888;15.544;2023-05-10T02:21:51;95776.81;;;6.42;57.32
72636;BME280;60679;48.888;15.544;2023-05-10T02:24:17;95774.53;;;6.38;57.27
72636;BME280;60679;48.888;15.544;2023-05-10T02:26:45;95774.34;;;6.33;57.46
72636;BME280;60679;48.888;15.544;2023-05-10T02:29:11;95779.72;;;6.33;57.13
72636;BME280;60679;48.888;15.544;2023-05-10T02:31:38;95772.09;;;6.24;57.46
72636;BME280;60679;48.888;15.544;2023-05-10T02:34:06;95776.25;;;6.20;57.82
72636;BME280;60679;48.888;15.544;2023-05-10T02:36:33;95773.16;;;6.16;58.05
72636;BME280;60679;48.888;15.544;2023-05-10T02:39:01;95779.53;;;6.15;58.05
72636;BME280;60679;48.888;15.544;2023-05-10T02:41:27;95770.28;;;6.11;58.26
72636;BME280;60679;48.888;15.544;2023-05-10T02:43:57;95778.72;;;6.08;58.19
72636;BME280;60679;48.888;15.544;2023-05-10T02:46:24;95775.44;;;6.06;58.28
72636;BME280;60679;48.888;15.544;2023-05-10T02:48:50;95777.91;;;6.08;58.41
72636;BME280;60679;48.888;15.544;2023-05-10T02:51:16;95787.19;;;6.05;58.50
72636;BME280;60679;48.888;15.544;2023-05-10T02:53:46;95782.44;;;6.07;58.18
72636;BME280;60679;48.888;15.544;2023-05-10T02:56:15;95780.56;;;6.08;58.57
72636;BME280;60679;48.888;15.544;2023-05-10T02:58:45;95785.13;;;6.01;58.49
72636;BME280;60679;48.888;15.544;2023-05-10T03:01:11;95781.44;;;5.95;58.72
72636;BME280;60679;48.888;15.544;2023-05-10T03:03:36;95784.31;;;5.94;58.81
72636;BME280;60679;48.888;15.544;2023-05-10T03:06:02;95777.31;;;5.86;59.01
72636;BME280;60679;48.888;15.544;2023-05-10T03:08:27;95783.69;;;5.85;59.18
72636;BME280;60679;48.888;15.544;2023-05-10T03:11:06;95784.06;;;5.82;59.05
72636;BME280;60679;48.888;15.544;2023-05-10T03:14:12;95782.22;;;5.82;59.26
72636;BME280;60679;48.888;15.544;2023-05-10T03:16:56;95782.00;;;5.77;59.30
72636;BME280;60679;48.888;15.544;2023-05-10T03:19:24;95783.44;;;5.73;59.32
72636;BME280;60679;48.888;15.544;2023-05-10T03:21:53;95785.28;;;5.73;59.34
72636;BME280;60679;48.888;15.544;2023-05-10T03:24:23;95780.97;;;5.72;59.48
72636;BME280;60679;48.888;15.544;2023-05-10T03:26:51;95782.41;;;5.74;59.56
72636;BME280;60679;48.888;15.544;2023-05-10T03:29:20;95777.06;;;5.74;59.77
72636;BME280;60679;48.888;15.544;2023-05-10T03:31:46;95775.22;;;5.75;59.68
72636;BME280;60679;48.888;15.544;2023-05-10T03:34:11;95770.69;;;5.75;59.63
72636;BME280;60679;48.888;15.544;2023-05-10T03:36:36;95768.63;;;5.77;59.65
72636;BME280;60679;48.888;15.544;2023-05-10T03:39:02;95767.78;;;5.77;59.73
72636;BME280;60679;48.888;15.544;2023-05-10T03:41:27;95772.97;;;5.78;59.73
72636;BME280;60679;48.888;15.544;2023-05-10T03:43:53;95763.47;;;5.82;59.95
72636;BME280;60679;48.888;15.544;2023-05-10T03:46:18;95769.28;;;5.86;59.75
72636;BME280;60679;48.888;15.544;2023-05-10T03:48:44;95768.03;;;5.89;59.86
72636;BME280;60679;48.888;15.544;2023-05-10T03:51:09;95769.69;;;5.90;59.66
72636;BME280;60679;48.888;15.544;2023-05-10T03:53:34;95763.47;;;5.96;60.02
72636;BME280;60679;48.888;15.544;2023-05-10T03:56:00;95765.31;;;6.02;59.90
72636;BME280;60679;48.888;15.544;2023-05-10T03:58:26;95762.88;;;6.07;60.15
72636;BME280;60679;48.888;15.544;2023-05-10T04:00:52;95774.63;;;6.12;59.98
72636;BME280;60679;48.888;15.544;2023-05-10T04:03:17;95769.63;;;6.16;59.82
72636;BME280;60679;48.888;15.544;2023-05-10T04:05:43;95761.81;;;6.21;59.81
72636;BME280;60679;48.888;15.544;2023-05-10T04:08:08;95764.69;;;6.26;60.14
72636;BME280;60679;48.888;15.544;2023-05-10T04:10:34;95770.44;;;6.29;60.17
72636;BME280;60679;48.888;15.544;2023-05-10T04:13:00;95762.59;;;6.34;59.92
72636;BME280;60679;48.888;15.544;2023-05-10T04:15:25;95763.41;;;6.42;60.06
72636;BME280;60679;48.888;15.544;2023-05-10T04:17:51;95766.06;;;6.48;60.03
72636;BME280;60679;48.888;15.544;2023-05-10T04:20:16;95761.13;;;6.52;59.92
72636;BME280;60679;48.888;15.544;2023-05-10T04:22:45;95763.75;;;6.58;59.81
72636;BME280;60679;48.888;15.544;2023-05-10T04:25:10;95774.06;;;6.61;59.98
72636;BME280;60679;48.888;15.544;2023-05-10T04:27:36;95763.34;;;6.68;60.10
72636;BME280;60679;48.888;15.544;2023-05-10T04:30:02;95763.75;;;6.71;59.92
72636;BME280;60679;48.888;15.544;2023-05-10T04:32:27;95765.78;;;6.76;59.87
72636;BME280;60679;48.888;15.544;2023-05-10T04:34:53;95761.63;;;6.80;59.81
72636;BME280;60679;48.888;15.544;2023-05-10T04:37:18;95765.72;;;6.89;59.96
72636;BME280;60679;48.888;15.544;2023-05-10T04:39:45;95765.09;;;6.93;60.03
72636;BME280;60679;48.888;15.544;2023-05-10T04:42:10;95769.59;;;7.00;60.02
72636;BME280;60679;48.888;15.544;2023-05-10T04:44:36;95762.13;;;7.08;59.93
72636;BME280;60679;48.888;15.544;2023-05-10T04:47:02;95767.25;;;7.16;59.90
72636;BME280;60679;48.888;15.544;2023-05-10T04:49:28;95764.72;;;7.21;59.87
72636;BME280;60679;48.888;15.544;2023-05-10T04:51:55;95764.47;;;7.29;60.02
72636;BME280;60679;48.888;15.544;2023-05-10T04:54:20;95770.66;;;7.36;59.93
72636;BME280;60679;48.888;15.544;2023-05-10T04:56:46;95774.69;;;7.45;59.63
72636;BME280;60679;48.888;15.544;2023-05-10T04:59:11;95776.31;;;7.53;59.86
72636;BME280;60679;48.888;15.544;2023-05-10T05:01:36;95774.19;;;7.62;59.80
72636;BME280;60679;48.888;15.544;2023-05-10T05:04:02;95776.63;;;7.70;59.49
72636;BME280;60679;48.888;15.544;2023-05-10T05:06:27;95773.22;;;7.81;59.71
72636;BME280;60679;48.888;15.544;2023-05-10T05:08:53;95777.28;;;7.90;59.64
72636;BME280;60679;48.888;15.544;2023-05-10T05:11:18;95780.53;;;7.98;59.46
72636;BME280;60679;48.888;15.544;2023-05-10T05:13:44;95781.69;;;8.09;59.43
72636;BME280;60679;48.888;15.544;2023-05-10T05:16:10;95773.09;;;8.19;59.43
72636;BME280;60679;48.888;15.544;2023-05-10T05:18:36;95775.13;;;8.30;59.38
72636;BME280;60679;48.888;15.544;2023-05-10T05:21:01;95776.44;;;8.39;59.32
72636;BME280;60679;48.888;15.544;2023-05-10T05:23:27;95774.91;;;8.49;59.19
72636;BME280;60679;48.888;15.544;2023-05-10T05:25:53;95786.81;;;8.60;59.10
72636;BME280;60679;48.888;15.544;2023-05-10T05:28:21;95786.06;;;8.71;59.01
72636;BME280;60679;48.888;15.544;2023-05-10T05:30:47;95784.72;;;8.80;58.92
72636;BME280;60679;48.888;15.544;2023-05-10T05:33:15;95775.28;;;8.89;58.79
72636;BME280;60679;48.888;15.544;2023-05-10T05:35:41;95784.50;;;9.00;58.84
72636;BME280;60679;48.888;15.544;2023-05-10T05:38:08;95770.72;;;9.08;58.68
72636;BME280;60679;48.888;15.544;2023-05-10T05:40:33;95774.75;;;9.17;58.51
72636;BME280;60679;48.888;15.544;2023-05-10T05:42:59;95769.88;;;9.25;58.89
72636;BME280;60679;48.888;15.544;2023-05-10T05:45:24;95779.25;;;9.35;58.52
72636;BME280;60679;48.888;15.544;2023-05-10T05:47:49;95769.69;;;9.39;58.67
72636;BME280;60679;48.888;15.544;2023-05-10T05:50:15;95769.94;;;9.49;58.46
72636;BME280;60679;48.888;15.544;2023-05-10T05:52:40;95770.44;;;9.57;58.44
72636;BME280;60679;48.888;15.544;2023-05-10T05:55:06;95778.44;;;9.64;58.23
72636;BME280;60679;48.888;15.544;2023-05-10T05:57:31;95777.75;;;9.68;58.21
72636;BME280;60679;48.888;15.544;2023-05-10T05:59:57;95783.41;;;9.78;58.30
72636;BME280;60679;48.888;15.544;2023-05-10T06:02:22;95783.91;;;9.87;58.17
72636;BME280;60679;48.888;15.544;2023-05-10T06:04:47;95780.28;;;9.93;58.08
72636;BME280;60679;48.888;15.544;2023-05-10T06:07:13;95784.25;;;10.02;58.21
72636;BME280;60679;48.888;15.544;2023-05-10T06:09:38;95785.00;;;10.09;58.12
72636;BME280;60679;48.888;15.544;2023-05-10T06:12:04;95796.88;;;10.20;58.12
72636;BME280;60679;48.888;15.544;2023-05-10T06:14:29;95796.91;;;10.31;57.90
72636;BME280;60679;48.888;15.544;2023-05-10T06:16:54;95795.88;;;10.44;57.81
72636;BME280;60679;48.888;15.544;2023-05-10T06:19:20;95795.38;;;10.59;58.07
72636;BME280;60679;48.888;15.544;2023-05-10T06:21:45;95796.19;;;10.71;57.38
72636;BME280;60679;48.888;15.544;2023-05-10T06:24:10;95790.69;;;10.77;57.37
72636;BME280;60679;48.888;15.544;2023-05-10T06:26:36;95792.91;;;10.92;57.26
72636;BME280;60679;48.888;15.544;2023-05-10T06:29:01;95799.69;;;11.06;57.48
72636;BME280;60679;48.888;15.544;2023-05-10T06:31:26;95800.34;;;11.25;57.44
72636;BME280;60679;48.888;15.544;2023-05-10T06:33:52;95804.41;;;11.39;56.88
72636;BME280;60679;48.888;15.544;2023-05-10T06:36:17;95800.66;;;11.40;57.03
72636;BME280;60679;48.888;15.544;2023-05-10T06:38:43;95798.03;;;11.45;56.89
72636;BME280;60679;48.888;15.544;2023-05-10T06:41:08;95808.00;;;11.56;56.78
72636;BME280;60679;48.888;15.544;2023-05-10T06:43:33;95798.00;;;11.56;56.75
72636;BME280;60679;48.888;15.544;2023-05-10T06:45:59;95809.13;;;11.72;56.59
72636;BME280;60679;48.888;15.544;2023-05-10T06:48:25;95804.25;;;11.85;56.58
72636;BME280;60679;48.888;15.544;2023-05-10T06:50:50;95804.84;;;12.04;56.19
72636;BME280;60679;48.888;15.544;2023-05-10T06:53:16;95817.00;;;12.18;56.19
72636;BME280;60679;48.888;15.544;2023-05-10T06:55:41;95807.25;;;12.34;55.79
72636;BME280;60679;48.888;15.544;2023-05-10T06:58:07;95805.34;;;12.51;55.56
72636;BME280;60679;48.888;15.544;2023-05-10T07:00:32;95803.66;;;12.61;55.21
72636;BME280;60679;48.888;15.544;2023-05-10T07:02:58;95799.84;;;12.62;55.46
72636;BME280;60679;48.888;15.544;2023-05-10T07:05:23;95803.13;;;12.81;55.06
72636;BME280;60679;48.888;15.544;2023-05-10T07:07:49;95793.38;;;13.02;54.81
72636;BME280;60679;48.888;15.544;2023-05-10T07:10:14;95792.41;;;13.29;54.61
72636;BME280;60679;48.888;15.544;2023-05-10T07:12:40;95802.06;;;13.64;53.79
72636;BME280;60679;48.888;15.544;2023-05-10T07:15:06;95798.34;;;13.97;53.23
72636;BME280;60679;48.888;15.544;2023-05-10T07:17:31;95797.28;;;14.29;52.91
72636;BME280;60679;48.888;15.544;2023-05-10T07:19:59;95793.09;;;14.75;51.87
72636;BME280;60679;48.888;15.544;2023-05-10T07:22:25;95802.28;;;15.16;51.41
72636;BME280;60679;48.888;15.544;2023-05-10T07:24:50;95797.09;;;15.56;50.64
72636;BME280;60679;48.888;15.544;2023-05-10T07:27:16;95796.16;;;16.03;49.72
72636;BME280;60679;48.888;15.544;2023-05-10T07:29:41;95796.69;;;16.20;49.76
72636;BME280;60679;48.888;15.544;2023-05-10T07:32:07;95801.09;;;16.31;49.43
72636;BME280;60679;48.888;15.544;2023-05-10T07:34:32;95804.94;;;16.45;49.40
72636;BME280;60679;48.888;15.544;2023-05-10T07:37:01;95804.66;;;16.57;49.30
72636;BME280;60679;48.888;15.544;2023-05-10T07:39:27;95802.47;;;16.34;49.43
72636;BME280;60679;48.888;15.544;2023-05-10T07:41:53;95804.06;;;16.25;49.53
72636;BME280;60679;48.888;15.544;2023-05-10T07:44:18;95804.59;;;16.11;49.60
72636;BME280;60679;48.888;15.544;2023-05-10T07:46:45;95804.03;;;16.04;49.84
72636;BME280;60679;48.888;15.544;2023-05-10T07:49:11;95809.44;;;15.84;50.23
72636;BME280;60679;48.888;15.544;2023-05-10T07:51:36;95806.84;;;15.47;50.82
72636;BME280;60679;48.888;15.544;2023-05-10T07:54:02;95806.19;;;15.30;51.03
72636;BME280;60679;48.888;15.544;2023-05-10T07:56:29;95808.31;;;15.18;51.11
72636;BME280;60679;48.888;15.544;2023-05-10T07:58:56;95809.69;;;15.21;51.07
72636;BME280;60679;48.888;15.544;2023-05-10T08:01:22;95805.84;;;15.22;51.14
72636;BME280;60679;48.888;15.544;2023-05-10T08:03:47;95823.59;;;15.29;50.80
72636;BME280;60679;48.888;15.544;2023-05-10T08:06:14;95816.38;;;15.50;50.27
72636;BME280;60679;48.888;15.544;2023-05-10T08:08:40;95813.53;;;15.92;49.82
72636;BME280;60679;48.888;15.544;2023-05-10T08:11:06;95815.22;;;16.13;49.35
72636;BME280;60679;48.888;15.544;2023-05-10T08:13:31;95815.75;;;16.00;49.55
72636;BME280;60679;48.888;15.544;2023-05-10T08:15:57;95809.72;;;15.83;49.61
72636;BME280;60679;48.888;15.544;2023-05-10T08:18:22;95821.97;;;15.85;49.66
72636;BME280;60679;48.888;15.544;2023-05-10T08:20:47;95827.22;;;16.17;49.17
72636;BME280;60679;48.888;15.544;2023-05-10T08:23:15;95824.53;;;16.52;48.62
72636;BME280;60679;48.888;15.544;2023-05-10T08:25:40;95827.03;;;16.89;48.08
72636;BME280;60679;48.888;15.544;2023-05-10T08:28:06;95819.88;;;17.28;47.66
72636;BME280;60679;48.888;15.544;2023-05-10T08:30:31;95821.41;;;17.65;47.13
72636;BME280;60679;48.888;15.544;2023-05-10T08:33:00;95818.69;;;18.19;46.21
72636;BME280;60679;48.888;15.544;2023-05-10T08:35:25;95820.22;;;18.35;45.90
72636;BME280;60679;48.888;15.544;2023-05-10T08:37:51;95821.19;;;18.93;45.05
72636;BME280;60679;48.888;15.544;2023-05-10T08:40:19;95822.31;;;19.49;44.34
72636;BME280;60679;48.888;15.544;2023-05-10T08:42:51;95822.22;;;20.02;43.10
72636;BME280;60679;48.888;15.544;2023-05-10T08:45:19;95823.75;;;20.88;42.42
72636;BME280;60679;48.888;15.544;2023-05-10T08:47:46;95824.13;;;21.59;41.15
72636;BME280;60679;48.888;15.544;2023-05-10T08:50:12;95824.13;;;20.81;42.26
72636;BME280;60679;48.888;15.544;2023-05-10T08:52:40;95819.09;;;20.51;42.97
72636;BME280;60679;48.888;15.544;2023-05-10T08:55:06;95826.34;;;19.81;43.70
72636;BME280;60679;48.888;15.544;2023-05-10T08:57:32;95829.41;;;19.50;44.22
72636;BME280;60679;48.888;15.544;2023-05-10T09:00:00;95835.41;;;18.95;44.61
72636;BME280;60679;48.888;15.544;2023-05-10T09:02:26;95821.47;;;18.58;44.66
72636;BME280;60679;48.888;15.544;2023-05-10T09:04:51;95827.16;;;18.66;44.68
72636;BME280;60679;48.888;15.544;2023-05-10T09:07:17;95821.03;;;19.13;43.96
72636;BME280;60679;48.888;15.544;2023-05-10T09:09:43;95828.75;;;18.72;44.89
72636;BME280;60679;48.888;15.544;2023-05-10T09:12:09;95836.41;;;18.26;45.52
72636;BME280;60679;48.888;15.544;2023-05-10T09:14:37;95837.16;;;17.93;45.67
72636;BME280;60679;48.888;15.544;2023-05-10T09:17:04;95826.53;;;17.81;45.67
72636;BME280;60679;48.888;15.544;2023-05-10T09:19:29;95837.50;;;17.76;45.49
72636;BME280;60679;48.888;15.544;2023-05-10T09:21:55;95844.06;;;17.70;45.45
72636;BME280;60679;48.888;15.544;2023-05-10T09:24:25;95837.69;;;17.90;45.14
72636;BME280;60679;48.888;15.544;2023-05-10T09:26:50;95839.31;;;18.45;43.88
72636;BME280;60679;48.888;15.544;2023-05-10T09:29:16;95837.78;;;19.64;42.40
72636;BME280;60679;48.888;15.544;2023-05-10T09:31:51;95845.97;;;19.88;42.00
72636;BME280;60679;48.888;15.544;2023-05-10T09:34:22;95826.16;;;19.48;42.43
72636;BME280;60679;48.888;15.544;2023-05-10T09:39:18;95831.75;;;19.38;42.37
72636;BME280;60679;48.888;15.544;2023-05-10T09:41:44;95831.16;;;19.65;41.90
72636;BME280;60679;48.888;15.544;2023-05-10T09:44:09;95830.31;;;19.70;41.87
72636;BME280;60679;48.888;15.544;2023-05-10T09:46:35;95833.16;;;19.83;41.88
72636;BME280;60679;48.888;15.544;2023-05-10T09:49:01;95832.56;;;19.63;41.76
72636;BME280;60679;48.888;15.544;2023-05-10T09:51:26;95841.34;;;19.36;42.00
72636;BME280;60679;48.888;15.544;2023-05-10T09:54:13;95825.88;;;19.21;42.14
72636;BME280;60679;48.888;15.544;2023-05-10T09:56:40;95838.81;;;18.82;42.38
72636;BME280;60679;48.888;15.544;2023-05-10T09:59:07;95831.00;;;18.65;42.59
72636;BME280;60679;48.888;15.544;2023-05-10T10:01:34;95832.47;;;18.53;43.01
72636;BME280;60679;48.888;15.544;2023-05-10T10:04:04;95827.00;;;18.53;42.96
72636;BME280;60679;48.888;15.544;2023-05-10T10:06:35;95833.69;;;18.70;42.88
72636;BME280;60679;48.888;15.544;2023-05-10T10:09:00;95833.97;;;18.69;42.66
72636;BME280;60679;48.888;15.544;2023-05-10T10:11:26;95831.59;;;18.57;42.76
72636;BME280;60679;48.888;15.544;2023-05-10T10:13:52;95837.66;;;18.49;42.59
72636;BME280;60679;48.888;15.544;2023-05-10T10:16:19;95822.34;;;18.53;42.84
72636;BME280;60679;48.888;15.544;2023-05-10T10:18:45;95824.00;;;18.83;42.60
72636;BME280;60679;48.888;15.544;2023-05-10T10:21:13;95828.34;;;18.89;42.28
72636;BME280;60679;48.888;15.544;2023-05-10T10:23:38;95835.53;;;18.80;42.52
72636;BME280;60679;48.888;15.544;2023-05-10T10:26:04;95829.66;;;18.63;42.91
72636;BME280;60679;48.888;15.544;2023-05-10T10:28:36;95837.63;;;18.59;42.66
72636;BME280;60679;48.888;15.544;2023-05-10T10:31:47;95840.72;;;18.42;42.79
72636;BME280;60679;48.888;15.544;2023-05-10T10:34:26;95839.00;;;18.57;42.63
72636;BME280;60679;48.888;15.544;2023-05-10T10:36:55;95840.72;;;18.81;42.20
72636;BME280;60679;48.888;15.544;2023-05-10T10:39:22;95831.00;;;18.99;41.96
72636;BME280;60679;48.888;15.544;2023-05-10T10:41:54;95838.91;;;19.00;41.95
72636;BME280;60679;48.888;15.544;2023-05-10T10:55:08;95821.03;;;19.08;41.97
72636;BME280;60679;48.888;15.544;2023-05-10T10:57:56;95832.59;;;19.05;42.13
72636;BME280;60679;48.888;15.544;2023-05-10T11:00:33;95834.69;;;18.84;42.43
72636;BME280;60679;48.888;15.544;2023-05-10T11:03:10;95833.34;;;18.82;42.62
72636;BME280;60679;48.888;15.544;2023-05-10T11:05:43;95832.56;;;18.71;42.71
72636;BME280;60679;48.888;15.544;2023-05-10T11:08:29;95834.09;;;18.54;43.05
72636;BME280;60679;48.888;15.544;2023-05-10T11:13:46;95829.59;;;18.24;43.46
72636;BME280;60679;48.888;15.544;2023-05-10T11:16:20;95830.03;;;18.41;43.21
72636;BME280;60679;48.888;15.544;2023-05-10T11:19:00;95822.91;;;18.50;43.10
72636;BME280;60679;48.888;15.544;2023-05-10T11:21:27;95825.28;;;18.62;42.70
72636;BME280;60679;48.888;15.544;2023-05-10T11:23:55;95829.16;;;18.89;42.42
72636;BME280;60679;48.888;15.544;2023-05-10T11:26:22;95834.72;;;19.08;42.24
72636;BME280;60679;48.888;15.544;2023-05-10T11:28:50;95827.09;;;19.39;41.90
72636;BME280;60679;48.888;15.544;2023-05-10T11:31:17;95830.19;;;19.80;41.28
72636;BME280;60679;48.888;15.544;2023-05-10T11:33:44;95830.75;;;20.00;40.98
72636;BME280;60679;48.888;15.544;2023-05-10T11:36:21;95824.38;;;20.05;41.26
72636;BME280;60679;48.888;15.544;2023-05-10T11:38:47;95824.38;;;20.29;40.86
72636;BME280;60679;48.888;15.544;2023-05-10T11:41:14;95829.00;;;20.09;41.01
72636;BME280;60679;48.888;15.544;2023-05-10T11:43:40;95833.13;;;20.07;40.69
72636;BME280;60679;48.888;15.544;2023-05-10T11:46:10;95826.47;;;20.13;40.83
72636;BME280;60679;48.888;15.544;2023-05-10T11:48:38;95821.97;;;20.78;39.68
72636;BME280;60679;48.888;15.544;2023-05-10T11:51:03;95823.22;;;21.50;38.88
72636;BME280;60679;48.888;15.544;2023-05-10T11:53:31;95817.03;;;22.26;37.90
72636;BME280;60679;48.888;15.544;2023-05-10T11:56:05;95815.00;;;22.90;37.33
72636;BME280;60679;48.888;15.544;2023-05-10T11:58:31;95827.81;;;22.72;37.44
72636;BME280;60679;48.888;15.544;2023-05-10T12:01:01;95822.06;;;22.47;38.04
72636;BME280;60679;48.888;15.544;2023-05-10T12:03:27;95824.22;;;22.85;37.33
72636;BME280;60679;48.888;15.544;2023-05-10T12:05:53;95817.38;;;23.27;36.45
72636;BME280;60679;48.888;15.544;2023-05-10T12:08:22;95813.56;;;23.68;36.16
72636;BME280;60679;48.888;15.544;2023-05-10T12:10:48;95810.19;;;30.27;28.20
72636;BME280;60679;48.888;15.544;2023-05-10T12:13:21;95820.25;;;36.10;23.43
72636;BME280;60679;48.888;15.544;2023-05-10T12:15:49;95821.13;;;31.79;27.95
72636;BME280;60679;48.888;15.544;2023-05-10T12:18:22;95823.13;;;28.93;31.02
72636;BME280;60679;48.888;15.544;2023-05-10T12:20:52;95816.63;;;27.80;31.66
72636;BME280;60679;48.888;15.544;2023-05-10T12:23:19;95822.81;;;27.20;32.34
72636;BME280;60679;48.888;15.544;2023-05-10T12:25:45;95835.47;;;25.92;33.77
72636;BME280;60679;48.888;15.544;2023-05-10T12:28:10;95830.38;;;24.36;35.44
72636;BME280;60679;48.888;15.544;2023-05-10T12:30:39;95835.97;;;23.44;36.24
72636;BME280;60679;48.888;15.544;2023-05-10T12:33:12;95832.84;;;22.92;36.98
72636;BME280;60679;48.888;15.544;2023-05-10T12:35:51;95829.34;;;23.23;36.63
72636;BME280;60679;48.888;15.544;2023-05-10T12:38:28;95830.97;;;23.24;36.24
72636;BME280;60679;48.888;15.544;2023-05-10T12:40:57;95827.22;;;23.20;36.14
72636;BME280;60679;48.888;15.544;2023-05-10T12:43:22;95809.69;;;23.38;35.52
72636;BME280;60679;48.888;15.544;2023-05-10T12:45:48;95818.84;;;24.43;34.49
72636;BME280;60679;48.888;15.544;2023-05-10T12:48:14;95812.75;;;24.80;33.86
72636;BME280;60679;48.888;15.544;2023-05-10T12:50:40;95820.81;;;24.51;34.47
72636;BME280;60679;48.888;15.544;2023-05-10T12:53:05;95822.25;;;24.40;34.47
72636;BME280;60679;48.888;15.544;2023-05-10T12:55:31;95826.91;;;24.13;34.54
72636;BME280;60679;48.888;15.544;2023-05-10T12:57:56;95815.88;;;23.83;35.06
72636;BME280;60679;48.888;15.544;2023-05-10T13:00:22;95819.41;;;22.91;36.13
72636;BME280;60679;48.888;15.544;2023-05-10T13:02:47;95829.63;;;22.27;36.66
72636;BME280;60679;48.888;15.544;2023-05-10T13:05:12;95821.13;;;22.65;36.10
72636;BME280;60679;48.888;15.544;2023-05-10T13:07:38;95816.31;;;23.15;35.67
72636;BME280;60679;48.888;15.544;2023-05-10T13:10:05;95812.28;;;23.65;34.83
72636;BME280;60679;48.888;15.544;2023-05-10T13:12:31;95810.53;;;23.47;35.05
72636;BME280;60679;48.888;15.544;2023-05-10T13:14:56;95819.34;;;22.82;36.26
72636;BME280;60679;48.888;15.544;2023-05-10T13:17:22;95825.91;;;22.59;36.27
72636;BME280;60679;48.888;15.544;2023-05-10T13:19:47;95833.94;;;22.20;36.80
72636;BME280;60679;48.888;15.544;2023-05-10T13:22:13;95824.94;;;21.60;37.55
72636;BME280;60679;48.888;15.544;2023-05-10T13:24:38;95826.75;;;21.05;37.86
72636;BME280;60679;48.888;15.544;2023-05-10T13:27:03;95815.78;;;20.86;37.98